Time;durP1;ratioP1;P1;durP2;ratioP2;P2;SDS_P1;SDS_P2;PMS_P1;PMS_P2;Temp;Humidity;BMP_temperature;BMP_pressure;BME280_temperature;BME280_humidity;BME280_pressure;Samples;Min_cycle;Max_cycle;Signal;HPM_P1;HPM_P2
2022/07/09 00:02:03;;;;;;;;;;;21.70;61.60;;;;;;5042867;28;87951;-51
2022/07/09 00:04:28;;;;;;;;;;;21.70;61.60;;;;;;5043016;27;88041;-50
2022/07/09 00:06:54;;;;;;;;;;;21.60;61.70;;;;;;5043478;28;87108;-52
2022/07/09 00:09:19;;;;;;;;;;;21.60;61.80;;;;;;5043430;28;87128;-51
2022/07/09 00:11:45;;;;;;;;;;;21.60;61.80;;;;;;5043056;28;88060;-48
2022/07/09 00:14:10;;;;;;;;;;;21.60;61.70;;;;;;5043200;28;87148;-53
2022/07/09 00:16:36;;;;;;;;;;;21.60;61.80;;;;;;5043129;28;87484;-50
2022/07/09 00:19:01;;;;;;;;;;;21.60;61.80;;;;;;5043747;28;87646;-51
2022/07/09 00:21:27;;;;;;;;;;;21.60;61.80;;;;;;5045918;27;88170;-49
2022/07/09 00:23:52;;;;;;;;;;;21.50;61.80;;;;;;5042843;28;88068;-50
2022/07/09 00:26:18;;;;;;;;;;;21.60;61.80;;;;;;5042562;28;88075;-51
2022/07/09 00:28:44;;;;;;;;;;;21.50;61.80;;;;;;5042783;27;90138;-50
2022/07/09 00:31:10;;;;;;;;;;;21.50;61.90;;;;;;5042597;27;88072;-50
2022/07/09 00:33:36;;;;;;;;;;;21.50;62.00;;;;;;5042604;28;87113;-49
2022/07/09 00:36:01;;;;;;;;;;;21.50;62.00;;;;;;5042848;27;87871;-50
2022/07/09 00:38:27;;;;;;;;;;;21.50;61.90;;;;;;5042714;27;88020;-50
2022/07/09 00:40:52;;;;;;;;;;;21.50;62.00;;;;;;5042784;28;87472;-55
2022/07/09 00:43:19;;;;;;;;;;;21.50;62.10;;;;;;5046125;27;87296;-54
2022/07/09 00:45:45;;;;;;;;;;;21.50;62.00;;;;;;5041970;27;87103;-54
2022/07/09 00:48:12;;;;;;;;;;;21.50;62.10;;;;;;5042742;28;87431;-52
2022/07/09 00:50:39;;;;;;;;;;;21.40;62.20;;;;;;5041608;28;89012;-53
2022/07/09 00:53:06;;;;;;;;;;;21.40;62.20;;;;;;5042715;27;87083;-52
2022/07/09 00:55:32;;;;;;;;;;;21.40;62.20;;;;;;5042429;27;88919;-54
2022/07/09 00:57:57;;;;;;;;;;;21.40;62.20;;;;;;5042289;28;88039;-57
2022/07/09 01:00:23;;;;;;;;;;;21.40;62.30;;;;;;5042485;28;87134;-56
2022/07/09 01:02:49;;;;;;;;;;;21.40;62.30;;;;;;5041651;28;89283;-55
2022/07/09 01:05:14;;;;;;;;;;;21.40;62.30;;;;;;5045408;28;87695;-56
2022/07/09 01:07:40;;;;;;;;;;;21.40;62.40;;;;;;5043241;27;87449;-54
2022/07/09 01:10:05;;;;;;;;;;;21.40;62.20;;;;;;5042155;27;87642;-56
2022/07/09 01:12:32;;;;;;;;;;;21.40;62.40;;;;;;5042490;27;87125;-54
2022/07/09 01:14:57;;;;;;;;;;;21.30;62.40;;;;;;5041981;27;88064;-53
2022/07/09 01:17:23;;;;;;;;;;;21.40;62.40;;;;;;5041860;27;89443;-52
2022/07/09 01:19:48;;;;;;;;;;;21.40;62.40;;;;;;5042556;28;86975;-56
2022/07/09 01:22:14;;;;;;;;;;;21.40;62.40;;;;;;5042692;27;87412;-55
2022/07/09 01:24:39;;;;;;;;;;;21.30;62.40;;;;;;5042087;28;87874;-53
2022/07/09 01:27:05;;;;;;;;;;;21.30;62.50;;;;;;5044915;27;87017;-55
2022/07/09 01:29:31;;;;;;;;;;;21.30;62.50;;;;;;5041983;27;87142;-53
2022/07/09 01:31:56;;;;;;;;;;;21.20;62.60;;;;;;5042745;28;86362;-56
2022/07/09 01:34:22;;;;;;;;;;;21.20;62.60;;;;;;5042261;28;87036;-53
2022/07/09 01:36:47;;;;;;;;;;;21.20;62.60;;;;;;5041792;28;88019;-56
2022/07/09 01:39:13;;;;;;;;;;;21.20;62.60;;;;;;5041550;27;88048;-57
2022/07/09 01:41:38;;;;;;;;;;;21.20;62.70;;;;;;5042136;27;88274;-56
2022/07/09 01:44:04;;;;;;;;;;;21.20;62.70;;;;;;5041689;27;88003;-54
2022/07/09 01:46:29;;;;;;;;;;;21.20;62.50;;;;;;5044383;28;87210;-57
2022/07/09 01:48:55;;;;;;;;;;;21.20;62.80;;;;;;5041817;28;88061;-54
2022/07/09 01:51:22;;;;;;;;;;;21.20;62.80;;;;;;5042039;28;87139;-52
2022/07/09 01:53:47;;;;;;;;;;;21.10;62.80;;;;;;5042168;27;87474;-54
2022/07/09 01:56:13;;;;;;;;;;;21.20;62.80;;;;;;5042322;27;87024;-54
2022/07/09 01:58:38;;;;;;;;;;;21.20;62.80;;;;;;5041849;28;87162;-56
2022/07/09 02:01:04;;;;;;;;;;;21.10;62.70;;;;;;5041564;27;87713;-53
2022/07/09 02:03:30;;;;;;;;;;;21.20;62.90;;;;;;5040915;27;88962;-56
2022/07/09 02:05:56;;;;;;;;;;;21.10;62.80;;;;;;5041708;28;87167;-52
2022/07/09 02:08:22;;;;;;;;;;;21.10;62.80;;;;;;5044552;28;87440;-54
2022/07/09 02:10:48;;;;;;;;;;;21.10;63.00;;;;;;5041735;27;87101;-54
2022/07/09 02:13:13;;;;;;;;;;;21.10;62.90;;;;;;5041872;28;87498;-55
2022/07/09 02:15:39;;;;;;;;;;;21.10;62.80;;;;;;5044225;28;88112;-57
2022/07/09 02:18:04;;;;;;;;;;;21.10;62.80;;;;;;5045195;28;87118;-57
2022/07/09 02:20:30;;;;;;;;;;;21.10;62.80;;;;;;5045521;28;87010;-51
2022/07/09 02:22:56;;;;;;;;;;;21.10;62.80;;;;;;5044693;27;88151;-53
2022/07/09 02:25:21;;;;;;;;;;;21.10;63.00;;;;;;5044849;27;87071;-53
2022/07/09 02:27:47;;;;;;;;;;;21.00;62.90;;;;;;5044203;27;88749;-57
2022/07/09 02:30:13;;;;;;;;;;;21.10;62.90;;;;;;5047275;28;88042;-55
2022/07/09 02:32:39;;;;;;;;;;;21.10;62.80;;;;;;5044658;27;88170;-55
2022/07/09 02:35:05;;;;;;;;;;;21.00;63.00;;;;;;5044179;27;89910;-55
2022/07/09 02:37:31;;;;;;;;;;;21.10;62.90;;;;;;5044707;28;87376;-54
2022/07/09 02:39:57;;;;;;;;;;;21.00;62.90;;;;;;5044741;27;89016;-56
2022/07/09 02:42:23;;;;;;;;;;;21.00;62.90;;;;;;5044283;28;88386;-55
2022/07/09 02:44:48;;;;;;;;;;;21.00;63.00;;;;;;5044902;28;86393;-51
2022/07/09 02:47:14;;;;;;;;;;;21.00;62.90;;;;;;5044321;28;87038;-56
2022/07/09 02:49:39;;;;;;;;;;;21.00;62.90;;;;;;5044342;27;88262;-57
2022/07/09 02:52:06;;;;;;;;;;;21.00;62.90;;;;;;5046897;28;88092;-55
2022/07/09 02:54:32;;;;;;;;;;;21.00;63.00;;;;;;5044002;28;88062;-56
2022/07/09 02:56:57;;;;;;;;;;;20.90;63.10;;;;;;5044237;27;87010;-57
2022/07/09 02:59:23;;;;;;;;;;;20.90;63.10;;;;;;5044455;28;87470;-55
2022/07/09 03:01:49;;;;;;;;;;;20.90;63.80;;;;;;5044144;27;87731;-56
2022/07/09 03:04:14;;;;;;;;;;;20.90;63.10;;;;;;5044408;27;87160;-52
2022/07/09 03:06:39;;;;;;;;;;;20.90;63.10;;;;;;5044436;28;87053;-53
2022/07/09 03:09:06;;;;;;;;;;;20.90;63.30;;;;;;5044529;28;87665;-54
2022/07/09 03:11:31;;;;;;;;;;;20.80;63.20;;;;;;5043885;28;87177;-52
2022/07/09 03:13:57;;;;;;;;;;;20.90;63.10;;;;;;5046867;27;87608;-53
2022/07/09 03:16:22;;;;;;;;;;;20.90;63.20;;;;;;5043677;28;88222;-54
2022/07/09 03:18:48;;;;;;;;;;;20.80;63.30;;;;;;5044462;27;88455;-55
2022/07/09 03:21:13;;;;;;;;;;;20.80;63.20;;;;;;5043823;28;87173;-54
2022/07/09 03:23:39;;;;;;;;;;;20.80;63.20;;;;;;5044085;28;87141;-51
2022/07/09 03:26:05;;;;;;;;;;;20.90;63.20;;;;;;5043292;27;88876;-55
2022/07/09 03:28:31;;;;;;;;;;;20.90;63.10;;;;;;5043495;27;87852;-53
2022/07/09 03:30:56;;;;;;;;;;;20.90;63.10;;;;;;5044002;27;87170;-54
2022/07/09 03:33:22;;;;;;;;;;;20.80;63.10;;;;;;5047064;28;87386;-51
2022/07/09 03:35:48;;;;;;;;;;;20.80;63.20;;;;;;5043704;27;87084;-54
2022/07/09 03:38:13;;;;;;;;;;;20.80;63.10;;;;;;5043964;28;87330;-52
2022/07/09 03:40:39;;;;;;;;;;;20.80;63.10;;;;;;5042702;28;88979;-55
2022/07/09 03:43:04;;;;;;;;;;;20.80;63.20;;;;;;5043983;28;87142;-54
2022/07/09 03:45:30;;;;;;;;;;;20.80;63.20;;;;;;5043231;28;87139;-54
2022/07/09 03:47:55;;;;;;;;;;;20.70;63.30;;;;;;5042671;27;91575;-55
2022/07/09 03:50:21;;;;;;;;;;;20.80;63.30;;;;;;5044040;27;87226;-53
2022/07/09 03:52:46;;;;;;;;;;;20.70;63.30;;;;;;5043609;28;87213;-52
2022/07/09 03:55:12;;;;;;;;;;;20.70;63.30;;;;;;5045876;27;89557;-54
2022/07/09 03:57:38;;;;;;;;;;;20.70;63.40;;;;;;5044168;28;87518;-51
2022/07/09 04:00:04;;;;;;;;;;;20.70;63.30;;;;;;5042788;27;89659;-55
2022/07/09 04:02:30;;;;;;;;;;;20.70;63.20;;;;;;5043341;27;87048;-54
2022/07/09 04:04:56;;;;;;;;;;;20.70;63.20;;;;;;5043129;28;88274;-52
2022/07/09 04:07:22;;;;;;;;;;;20.70;63.20;;;;;;5043261;28;87491;-54
2022/07/09 04:09:47;;;;;;;;;;;20.70;63.30;;;;;;5043424;27;87240;-56
2022/07/09 04:12:13;;;;;;;;;;;20.70;63.30;;;;;;5043119;27;89102;-56
2022/07/09 04:14:38;;;;;;;;;;;20.70;63.30;;;;;;5042625;28;88626;-52
2022/07/09 04:17:05;;;;;;;;;;;20.70;63.30;;;;;;5046210;28;87055;-54
2022/07/09 04:19:31;;;;;;;;;;;20.70;63.30;;;;;;5042720;27;89362;-55
2022/07/09 04:21:57;;;;;;;;;;;20.70;63.30;;;;;;5043751;27;86270;-54
2022/07/09 04:24:22;;;;;;;;;;;20.70;63.30;;;;;;5043175;28;87033;-54
2022/07/09 04:26:47;;;;;;;;;;;20.70;63.30;;;;;;5042975;28;88031;-55
2022/07/09 04:29:13;;;;;;;;;;;20.60;63.40;;;;;;5042518;28;88064;-53
2022/07/09 04:31:39;;;;;;;;;;;20.60;64.10;;;;;;5043200;27;88355;-53
2022/07/09 04:34:04;;;;;;;;;;;20.60;63.40;;;;;;5042773;28;88275;-52
2022/07/09 04:36:31;;;;;;;;;;;20.60;63.40;;;;;;5042097;27;87157;-53
2022/07/09 04:38:57;;;;;;;;;;;20.60;63.50;;;;;;5045536;28;88948;-54
2022/07/09 04:41:22;;;;;;;;;;;20.60;63.40;;;;;;5042658;27;87092;-54
2022/07/09 04:43:48;;;;;;;;;;;20.60;63.50;;;;;;5042770;28;87734;-54
2022/07/09 04:46:14;;;;;;;;;;;20.50;63.50;;;;;;5042430;28;88870;-56
2022/07/09 04:48:39;;;;;;;;;;;20.60;63.50;;;;;;5042531;27;87056;-53
2022/07/09 04:51:05;;;;;;;;;;;20.60;63.50;;;;;;5042778;28;87516;-55
2022/07/09 04:53:30;;;;;;;;;;;20.60;63.40;;;;;;5041750;27;89100;-55
2022/07/09 04:55:56;;;;;;;;;;;20.50;63.60;;;;;;5042988;27;87190;-54
2022/07/09 04:58:22;;;;;;;;;;;20.50;63.70;;;;;;5042358;27;88720;-53
2022/07/09 05:00:47;;;;;;;;;;;20.50;64.20;;;;;;5044899;28;88329;-53
2022/07/09 05:03:13;;;;;;;;;;;20.50;63.60;;;;;;5042584;28;87558;-55
2022/07/09 05:05:38;;;;;;;;;;;20.50;63.60;;;;;;5042245;28;88051;-53
2022/07/09 05:08:04;;;;;;;;;;;20.50;63.60;;;;;;5042548;28;88001;-54
2022/07/09 05:10:29;;;;;;;;;;;20.40;63.50;;;;;;5043086;28;86918;-50
2022/07/09 05:12:55;;;;;;;;;;;20.50;63.60;;;;;;5042219;27;88018;-54
2022/07/09 05:15:20;;;;;;;;;;;20.50;63.60;;;;;;5042361;28;87077;-53
2022/07/09 05:17:46;;;;;;;;;;;20.50;63.70;;;;;;5041752;28;88029;-56
2022/07/09 05:20:11;;;;;;;;;;;20.40;63.50;;;;;;5042122;27;88100;-53
2022/07/09 05:22:37;;;;;;;;;;;20.40;63.50;;;;;;5045333;27;87274;-51
2022/07/09 05:25:03;;;;;;;;;;;20.40;63.60;;;;;;5041853;27;89153;-52
2022/07/09 05:27:29;;;;;;;;;;;20.40;63.70;;;;;;5041957;27;86852;-52
2022/07/09 05:29:55;;;;;;;;;;;20.40;63.60;;;;;;5042006;27;87377;-54
2022/07/09 05:32:20;;;;;;;;;;;20.40;63.50;;;;;;5041971;27;87902;-52
2022/07/09 05:34:46;;;;;;;;;;;20.40;63.70;;;;;;5042668;28;86402;-53
2022/07/09 05:37:11;;;;;;;;;;;20.40;63.90;;;;;;5042534;27;86879;-53
2022/07/09 05:39:37;;;;;;;;;;;20.30;63.70;;;;;;5041615;27;89032;-52
2022/07/09 05:42:03;;;;;;;;;;;20.40;63.80;;;;;;5044519;28;88174;-53
2022/07/09 05:44:28;;;;;;;;;;;20.40;63.80;;;;;;5041966;27;88212;-54
2022/07/09 05:46:54;;;;;;;;;;;20.30;63.70;;;;;;5041010;27;87201;-52
2022/07/09 05:49:19;;;;;;;;;;;20.40;63.80;;;;;;5044873;27;87061;-51
2022/07/09 05:51:45;;;;;;;;;;;20.30;63.90;;;;;;5045327;28;87277;-52
2022/07/09 05:54:10;;;;;;;;;;;20.20;64.00;;;;;;5045509;28;87185;-52
2022/07/09 05:56:36;;;;;;;;;;;20.30;64.00;;;;;;5045794;28;87474;-52
2022/07/09 05:59:05;;;;;;;;;;;20.20;64.00;;;;;;5045391;27;88571;-54
2022/07/09 06:01:30;;;;;;;;;;;20.20;64.00;;;;;;5045334;28;86954;-53
2022/07/09 06:03:56;;;;;;;;;;;20.30;64.10;;;;;;5047748;27;89167;-54
2022/07/09 06:06:21;;;;;;;;;;;20.20;64.00;;;;;;5044903;27;88132;-53
2022/07/09 06:08:47;;;;;;;;;;;20.20;64.30;;;;;;5045215;27;89902;-53
2022/07/09 06:11:13;;;;;;;;;;;20.20;64.20;;;;;;5044721;27;89308;-54
2022/07/09 06:13:38;;;;;;;;;;;20.20;64.30;;;;;;5045255;27;88244;-52
2022/07/09 06:16:04;;;;;;;;;;;20.20;64.40;;;;;;5045265;27;87446;-53
2022/07/09 06:18:30;;;;;;;;;;;20.20;64.50;;;;;;5044597;27;87397;-53
2022/07/09 06:20:55;;;;;;;;;;;20.20;64.40;;;;;;5044963;28;87032;-54
2022/07/09 06:23:21;;;;;;;;;;;20.10;64.40;;;;;;5045584;28;87367;-50
2022/07/09 06:25:47;;;;;;;;;;;20.20;64.50;;;;;;5047484;28;89473;-51
2022/07/09 06:28:12;;;;;;;;;;;20.20;64.50;;;;;;5045095;28;87476;-52
2022/07/09 06:30:38;;;;;;;;;;;20.20;64.70;;;;;;5043778;27;88901;-53
2022/07/09 06:33:03;;;;;;;;;;;20.10;64.70;;;;;;5045247;28;87081;-52
2022/07/09 06:35:30;;;;;;;;;;;20.10;64.80;;;;;;5045224;27;87344;-51
2022/07/09 06:37:56;;;;;;;;;;;20.10;64.80;;;;;;5044622;27;87960;-54
2022/07/09 06:40:22;;;;;;;;;;;20.10;64.80;;;;;;5045014;27;87101;-55
2022/07/09 06:42:47;;;;;;;;;;;20.20;64.70;;;;;;5044871;28;87355;-52
2022/07/09 06:45:14;;;;;;;;;;;20.20;64.60;;;;;;5044120;28;88044;-51
2022/07/09 06:47:39;;;;;;;;;;;20.10;64.70;;;;;;5046967;28;86400;-51
2022/07/09 06:50:05;;;;;;;;;;;20.10;64.60;;;;;;5044491;28;88055;-51
2022/07/09 06:52:31;;;;;;;;;;;20.10;64.70;;;;;;5044226;27;86856;-51
2022/07/09 06:54:56;;;;;;;;;;;20.10;64.70;;;;;;5044212;28;87847;-50
2022/07/09 06:57:22;;;;;;;;;;;20.10;64.70;;;;;;5044131;27;88152;-54
2022/07/09 06:59:47;;;;;;;;;;;20.10;64.60;;;;;;5043568;27;87178;-50
2022/07/09 07:02:13;;;;;;;;;;;20.10;64.80;;;;;;5044478;28;87443;-55
2022/07/09 07:04:38;;;;;;;;;;;20.20;64.70;;;;;;5044099;28;87142;-52
2022/07/09 07:07:04;;;;;;;;;;;20.10;64.60;;;;;;5044468;28;87143;-51
2022/07/09 07:09:30;;;;;;;;;;;20.10;64.60;;;;;;5047076;27;87362;-50
2022/07/09 07:11:55;;;;;;;;;;;20.10;64.80;;;;;;5044751;28;86357;-51
2022/07/09 07:14:21;;;;;;;;;;;20.10;64.90;;;;;;5043878;27;87336;-50
2022/07/09 07:16:47;;;;;;;;;;;20.10;64.80;;;;;;5043834;28;87766;-54
2022/07/09 07:19:12;;;;;;;;;;;20.10;64.90;;;;;;5043704;28;88187;-50
2022/07/09 07:21:38;;;;;;;;;;;20.10;64.80;;;;;;5044179;28;88483;-52
2022/07/09 07:24:04;;;;;;;;;;;20.10;64.50;;;;;;5043691;27;89388;-52
2022/07/09 07:26:30;;;;;;;;;;;20.10;64.80;;;;;;5044095;27;87088;-53
2022/07/09 07:28:55;;;;;;;;;;;20.10;64.70;;;;;;5044086;27;87335;-52
2022/07/09 07:31:22;;;;;;;;;;;20.10;64.60;;;;;;5046479;28;88199;-51
2022/07/09 07:33:48;;;;;;;;;;;20.10;64.70;;;;;;5043931;28;87329;-54
2022/07/09 07:36:13;;;;;;;;;;;20.10;64.60;;;;;;5044158;28;87305;-53
2022/07/09 07:38:39;;;;;;;;;;;20.10;64.70;;;;;;5044004;28;87034;-51
2022/07/09 07:41:04;;;;;;;;;;;20.10;64.70;;;;;;5043733;27;88168;-52
2022/07/09 07:43:31;;;;;;;;;;;20.10;64.60;;;;;;5042940;28;89252;-53
2022/07/09 07:45:56;;;;;;;;;;;20.10;64.90;;;;;;5043377;28;86734;-50
2022/07/09 07:48:22;;;;;;;;;;;20.00;65.00;;;;;;5043443;27;88946;-56
2022/07/09 07:50:47;;;;;;;;;;;20.00;64.80;;;;;;5046465;28;88339;-53
2022/07/09 07:53:13;;;;;;;;;;;20.10;64.90;;;;;;5043800;28;87152;-54
2022/07/09 07:55:39;;;;;;;;;;;20.00;65.00;;;;;;5043257;27;88439;-52
2022/07/09 07:58:05;;;;;;;;;;;20.00;65.00;;;;;;5043233;27;87172;-49
2022/07/09 08:00:31;;;;;;;;;;;20.00;64.80;;;;;;5043675;27;88940;-53
2022/07/09 08:02:56;;;;;;;;;;;20.10;64.90;;;;;;5043126;28;87845;-51
2022/07/09 08:05:22;;;;;;;;;;;20.00;65.10;;;;;;5043573;28;87046;-51
2022/07/09 08:07:47;;;;;;;;;;;20.00;64.90;;;;;;5042944;28;87992;-54
2022/07/09 08:10:13;;;;;;;;;;;20.00;64.70;;;;;;5042985;28;87985;-50
2022/07/09 08:12:38;;;;;;;;;;;20.00;64.80;;;;;;5046558;27;87345;-52
2022/07/09 08:15:04;;;;;;;;;;;20.00;65.20;;;;;;5042537;28;88172;-50
2022/07/09 08:17:29;;;;;;;;;;;20.00;65.30;;;;;;5043230;27;87092;-51
2022/07/09 08:19:55;;;;;;;;;;;20.00;65.10;;;;;;5043488;28;87516;-50
2022/07/09 08:22:21;;;;;;;;;;;20.00;65.90;;;;;;5042610;27;89495;-51
2022/07/09 08:24:46;;;;;;;;;;;20.00;65.20;;;;;;5043755;28;86319;-50
2022/07/09 08:27:12;;;;;;;;;;;20.00;65.10;;;;;;5043210;27;88217;-50
2022/07/09 08:29:37;;;;;;;;;;;20.00;65.20;;;;;;5042770;27;87747;-53
2022/07/09 08:32:04;;;;;;;;;;;20.00;65.20;;;;;;5042116;27;88069;-50
2022/07/09 08:34:29;;;;;;;;;;;20.00;65.30;;;;;;5045451;27;89902;-54
2022/07/09 08:36:55;;;;;;;;;;;20.00;65.30;;;;;;5043104;27;87038;-52
2022/07/09 08:39:20;;;;;;;;;;;20.00;65.10;;;;;;5043128;27;87479;-51
2022/07/09 08:41:46;;;;;;;;;;;20.00;65.00;;;;;;5042654;28;87466;-50
2022/07/09 08:44:12;;;;;;;;;;;20.00;64.90;;;;;;5043137;27;87119;-53
2022/07/09 08:46:38;;;;;;;;;;;20.00;65.00;;;;;;5042059;28;87505;-52
2022/07/09 08:49:05;;;;;;;;;;;20.00;65.20;;;;;;5042996;28;86567;-52
2022/07/09 08:51:34;;;;;;;;;;;20.00;65.00;;;;;;5042595;27;87139;-50
2022/07/09 08:54:00;;;;;;;;;;;20.00;65.00;;;;;;5042623;27;87178;-52
2022/07/09 08:56:25;;;;;;;;;;;20.00;65.20;;;;;;5044601;27;89032;-51
2022/07/09 08:58:51;;;;;;;;;;;20.00;65.00;;;;;;5042719;27;88426;-53
2022/07/09 09:01:19;;;;;;;;;;;20.00;65.20;;;;;;5042188;28;88075;-50
2022/07/09 09:03:46;;;;;;;;;;;19.90;65.30;;;;;;5042684;27;86945;-50
2022/07/09 09:06:12;;;;;;;;;;;19.90;65.50;;;;;;5042585;27;87752;-50
2022/07/09 09:08:39;;;;;;;;;;;19.90;65.50;;;;;;5042400;27;87852;-51
2022/07/09 09:11:06;;;;;;;;;;;19.80;65.60;;;;;;5042413;27;87135;-51
2022/07/09 09:13:41;;;;;;;;;;;19.90;65.50;;;;;;5042906;28;87911;-51
2022/07/09 09:16:07;;;;;;;;;;;19.90;65.40;;;;;;5042255;28;88325;-51
2022/07/09 09:18:36;;;;;;;;;;;19.90;65.40;;;;;;5045523;28;87588;-50
2022/07/09 09:21:02;;;;;;;;;;;19.90;65.60;;;;;;5041080;27;90728;-53
2022/07/09 09:23:28;;;;;;;;;;;19.90;65.50;;;;;;5043843;27;87146;-51
2022/07/09 09:25:54;;;;;;;;;;;19.90;65.90;;;;;;5046015;27;87539;-51
2022/07/09 09:28:19;;;;;;;;;;;19.90;65.80;;;;;;5045644;28;88087;-50
2022/07/09 09:30:46;;;;;;;;;;;19.80;65.60;;;;;;5045935;28;87112;-52
2022/07/09 09:33:14;;;;;;;;;;;19.90;65.30;;;;;;5045918;27;87412;-50
2022/07/09 09:35:44;;;;;;;;;;;19.90;65.30;;;;;;5044969;27;89576;-52
2022/07/09 09:38:09;;;;;;;;;;;19.90;65.40;;;;;;5045879;27;86281;-51
2022/07/09 09:40:35;;;;;;;;;;;19.90;65.40;;;;;;5048318;28;86977;-50
2022/07/09 09:43:02;;;;;;;;;;;19.90;65.20;;;;;;5045555;28;87178;-49
2022/07/09 09:45:27;;;;;;;;;;;19.90;65.30;;;;;;5045142;27;87872;-53
2022/07/09 09:47:53;;;;;;;;;;;19.90;65.50;;;;;;5044541;27;88219;-51
2022/07/09 09:50:22;;;;;;;;;;;19.80;65.50;;;;;;5045531;28;87132;-51
2022/07/09 09:52:52;;;;;;;;;;;19.90;65.40;;;;;;5045230;27;87023;-50
2022/07/09 09:55:18;;;;;;;;;;;19.90;65.30;;;;;;5043469;28;90032;-53
2022/07/09 09:57:43;;;;;;;;;;;19.90;65.50;;;;;;5045135;27;87627;-52
2022/07/09 10:00:13;;;;;;;;;;;19.80;65.40;;;;;;5048063;27;87551;-50
2022/07/09 10:02:43;;;;;;;;;;;19.90;65.20;;;;;;5045556;28;86455;-51
2022/07/09 10:05:09;;;;;;;;;;;19.80;65.80;;;;;;5045546;28;87115;-52
2022/07/09 10:07:34;;;;;;;;;;;19.80;65.80;;;;;;5045000;27;88256;-51
2022/07/09 10:10:00;;;;;;;;;;;19.70;65.80;;;;;;5044673;27;88083;-51
2022/07/09 10:12:30;;;;;;;;;;;19.80;65.90;;;;;;5045371;27;87450;-52
2022/07/09 10:14:55;;;;;;;;;;;19.80;66.00;;;;;;5044848;28;87763;-52
2022/07/09 10:17:23;;;;;;;;;;;19.80;65.50;;;;;;5045267;27;87080;-53
2022/07/09 10:19:53;;;;;;;;;;;19.80;65.80;;;;;;5045130;27;87513;-52
2022/07/09 10:22:18;;;;;;;;;;;19.80;65.80;;;;;;5047461;27;87872;-55
2022/07/09 10:24:44;;;;;;;;;;;19.80;65.90;;;;;;5045144;27;87539;-55
2022/07/09 10:27:10;;;;;;;;;;;19.80;65.80;;;;;;5045245;27;87258;-55
2022/07/09 10:29:50;;;;;;;;;;;19.80;65.90;;;;;;5044910;27;87010;-53
2022/07/09 10:32:26;;;;;;;;;;;19.70;65.90;;;;;;5044946;27;87714;-56
2022/07/09 10:35:05;;;;;;;;;;;19.70;65.60;;;;;;5042394;27;90488;-55
2022/07/09 10:37:41;;;;;;;;;;;19.80;66.10;;;;;;5044503;27;87311;-51
2022/07/09 10:40:14;;;;;;;;;;;19.70;66.00;;;;;;5044773;27;86970;-50
2022/07/09 10:42:41;;;;;;;;;;;19.70;66.00;;;;;;5043930;27;89522;-49
2022/07/09 10:45:18;;;;;;;;;;;19.70;66.00;;;;;;5047568;27;87107;-51
2022/07/09 10:47:46;;;;;;;;;;;19.70;66.20;;;;;;5043534;28;88131;-48
2022/07/09 10:50:12;;;;;;;;;;;19.70;66.00;;;;;;5044330;27;87136;-49
2022/07/09 10:52:38;;;;;;;;;;;19.70;66.10;;;;;;5045202;28;87301;-47
2022/07/09 10:55:03;;;;;;;;;;;19.70;66.20;;;;;;5044319;27;88056;-48
2022/07/09 10:57:29;;;;;;;;;;;19.70;66.40;;;;;;5044414;28;87178;-48
2022/07/09 10:59:54;;;;;;;;;;;19.60;66.20;;;;;;5043891;27;87948;-49
2022/07/09 11:02:23;;;;;;;;;;;19.60;66.50;;;;;;5043927;28;88261;-48
2022/07/09 11:04:50;;;;;;;;;;;19.60;66.50;;;;;;5044390;27;87591;-50
2022/07/09 11:07:22;;;;;;;;;;;19.60;66.50;;;;;;5046670;27;88938;-48
2022/07/09 11:09:49;;;;;;;;;;;19.60;66.80;;;;;;5044296;27;87431;-49
2022/07/09 11:12:15;;;;;;;;;;;19.60;66.40;;;;;;5044356;28;87012;-46
2022/07/09 11:14:48;;;;;;;;;;;19.60;66.30;;;;;;5043701;27;89343;-48
2022/07/09 11:17:17;;;;;;;;;;;19.60;66.10;;;;;;5044642;28;86303;-48
2022/07/09 11:19:43;;;;;;;;;;;19.60;66.30;;;;;;5044313;27;87016;-48
2022/07/09 11:22:09;;;;;;;;;;;19.60;66.20;;;;;;5043593;27;89414;-49
2022/07/09 11:24:35;;;;;;;;;;;19.60;66.30;;;;;;5043545;27;88055;-49
2022/07/09 11:27:02;;;;;;;;;;;19.60;66.50;;;;;;5044021;27;88490;-47
2022/07/09 11:29:28;;;;;;;;;;;19.50;66.50;;;;;;5046069;28;89463;-46
2022/07/09 11:31:53;;;;;;;;;;;19.50;66.30;;;;;;5044099;27;87430;-51
2022/07/09 11:34:19;;;;;;;;;;;19.60;66.50;;;;;;5043806;28;88823;-50
2022/07/09 11:36:45;;;;;;;;;;;19.50;66.50;;;;;;5043765;27;87120;-49
2022/07/09 11:39:21;;;;;;;;;;;19.50;66.50;;;;;;5043734;27;88793;-49
2022/07/09 11:41:47;;;;;;;;;;;19.60;66.40;;;;;;5043889;27;88563;-47
2022/07/09 11:44:19;;;;;;;;;;;19.60;66.30;;;;;;5043853;27;87242;-50
2022/07/09 11:46:45;;;;;;;;;;;19.60;66.40;;;;;;5042416;27;87895;-48
2022/07/09 11:49:14;;;;;;;;;;;19.60;66.30;;;;;;5042721;27;89097;-49
2022/07/09 11:51:40;;;;;;;;;;;19.50;66.60;;;;;;5046293;27;88373;-47
2022/07/09 11:54:06;;;;;;;;;;;19.50;66.50;;;;;;5043160;27;89756;-47
2022/07/09 11:56:43;;;;;;;;;;;19.40;66.70;;;;;;5043717;28;87141;-49
2022/07/09 11:59:08;;;;;;;;;;;19.50;66.50;;;;;;5043280;28;88004;-49
2022/07/09 12:01:35;;;;;;;;;;;19.50;66.30;;;;;;5042803;28;87357;-52
2022/07/09 12:04:01;;;;;;;;;;;19.50;66.90;;;;;;5043611;27;87270;-49
2022/07/09 12:06:26;;;;;;;;;;;19.50;66.70;;;;;;5044003;28;87353;-48
2022/07/09 12:09:02;;;;;;;;;;;19.50;66.80;;;;;;5043037;27;89416;-50
2022/07/09 12:11:28;;;;;;;;;;;19.50;66.60;;;;;;5046074;27;87069;-49
2022/07/09 12:13:54;;;;;;;;;;;19.40;66.60;;;;;;5042443;27;88957;-47
2022/07/09 12:16:19;;;;;;;;;;;19.50;66.60;;;;;;5043251;27;87013;-50
2022/07/09 12:18:45;;;;;;;;;;;19.40;66.70;;;;;;5043310;28;87492;-48
2022/07/09 12:21:10;;;;;;;;;;;19.50;66.50;;;;;;5042674;28;88432;-52
2022/07/09 12:23:36;;;;;;;;;;;19.50;66.20;;;;;;5043335;27;87126;-50
2022/07/09 12:26:01;;;;;;;;;;;19.50;66.20;;;;;;5042985;27;87002;-49
2022/07/09 12:28:27;;;;;;;;;;;19.50;66.20;;;;;;5043078;28;88064;-48
2022/07/09 12:30:53;;;;;;;;;;;19.50;66.20;;;;;;5043568;28;86420;-52
2022/07/09 12:33:18;;;;;;;;;;;19.60;66.10;;;;;;5045790;28;86919;-47
2022/07/09 12:35:44;;;;;;;;;;;19.60;66.40;;;;;;5042912;28;86953;-48
2022/07/09 12:38:09;;;;;;;;;;;19.50;66.30;;;;;;5042544;28;87795;-49
2022/07/09 12:40:35;;;;;;;;;;;19.60;66.20;;;;;;5042571;28;88505;-49
2022/07/09 12:43:00;;;;;;;;;;;19.60;66.00;;;;;;5042768;27;87150;-48
2022/07/09 12:45:26;;;;;;;;;;;19.60;66.20;;;;;;5043006;28;87014;-49
2022/07/09 12:47:52;;;;;;;;;;;19.50;66.30;;;;;;5041671;27;89538;-47
2022/07/09 12:50:17;;;;;;;;;;;19.50;66.20;;;;;;5042401;27;87076;-47
2022/07/09 12:52:43;;;;;;;;;;;19.50;66.40;;;;;;5042525;28;86984;-50
2022/07/09 12:55:09;;;;;;;;;;;19.50;66.20;;;;;;5045372;27;88901;-50
2022/07/09 12:57:35;;;;;;;;;;;19.50;66.20;;;;;;5041598;27;88436;-50
2022/07/09 13:00:00;;;;;;;;;;;19.50;66.20;;;;;;5042174;28;89374;-51
2022/07/09 13:02:27;;;;;;;;;;;19.50;66.60;;;;;;5041928;27;88384;-48
2022/07/09 13:04:53;;;;;;;;;;;19.50;66.30;;;;;;5042565;27;89830;-50
2022/07/09 13:07:18;;;;;;;;;;;19.50;66.30;;;;;;5042242;28;88227;-51
2022/07/09 13:09:44;;;;;;;;;;;19.60;66.10;;;;;;5042560;27;87175;-49
2022/07/09 13:12:09;;;;;;;;;;;19.60;66.00;;;;;;5042254;28;87317;-50
2022/07/09 13:14:35;;;;;;;;;;;19.60;66.00;;;;;;5041960;28;88117;-48
2022/07/09 13:17:00;;;;;;;;;;;19.60;66.20;;;;;;5045518;28;87114;-51
2022/07/09 13:19:26;;;;;;;;;;;19.60;66.20;;;;;;5042685;28;87787;-54
2022/07/09 13:21:51;;;;;;;;;;;19.50;66.10;;;;;;5042197;27;87095;-48
2022/07/09 13:24:17;;;;;;;;;;;19.60;66.00;;;;;;5042341;28;87296;-50
2022/07/09 13:26:42;;;;;;;;;;;19.60;65.90;;;;;;5041096;28;89184;-50
2022/07/09 13:29:08;;;;;;;;;;;19.60;66.00;;;;;;5042449;27;87084;-46
2022/07/09 13:31:33;;;;;;;;;;;19.60;65.80;;;;;;5042445;28;87577;-48
2022/07/09 13:33:59;;;;;;;;;;;19.60;65.90;;;;;;5041991;27;87927;-49
2022/07/09 13:36:25;;;;;;;;;;;19.60;66.30;;;;;;5042267;27;86962;-49
2022/07/09 13:38:50;;;;;;;;;;;19.60;65.80;;;;;;5044767;28;87188;-47
2022/07/09 13:41:16;;;;;;;;;;;19.60;65.90;;;;;;5042036;28;87216;-49
2022/07/09 13:43:42;;;;;;;;;;;19.60;66.10;;;;;;5042698;27;87401;-50
2022/07/09 13:46:08;;;;;;;;;;;19.60;66.10;;;;;;5041548;27;89505;-47
2022/07/09 13:48:33;;;;;;;;;;;19.60;66.20;;;;;;5041766;27;87073;-50
2022/07/09 13:51:00;;;;;;;;;;;19.50;66.10;;;;;;5041435;27;87926;-51
2022/07/09 13:53:28;;;;;;;;;;;19.50;66.30;;;;;;5041617;28;88060;-46
2022/07/09 13:55:54;;;;;;;;;;;19.60;66.20;;;;;;5041358;27;87262;-49
2022/07/09 13:58:19;;;;;;;;;;;19.50;66.10;;;;;;5044294;27;88131;-49
2022/07/09 14:00:45;;;;;;;;;;;19.50;66.40;;;;;;5041912;27;87187;-48
2022/07/09 14:03:10;;;;;;;;;;;19.50;66.20;;;;;;5041867;28;87454;-49
2022/07/09 14:05:37;;;;;;;;;;;19.50;66.10;;;;;;5041455;28;88405;-50
2022/07/09 14:08:03;;;;;;;;;;;19.50;66.10;;;;;;5042090;27;86378;-49
2022/07/09 14:10:28;;;;;;;;;;;19.50;66.00;;;;;;5044631;27;87292;-49